Time;durP1;ratioP1;P1;durP2;ratioP2;P2;SDS_P1;SDS_P2;PMS_P1;PMS_P2;Temp;Humidity;BMP_temperature;BMP_pressure;BME280_temperature;BME280_humidity;BME280_pressure;Samples;Min_cycle;Max_cycle;Signal;HPM_P1;HPM_P2
2022/03/26 00:00:38;;;;;;;9.63;7.25;;;14.20;52.80;;;;;;4988161;28;20571;-86
2022/03/26 00:03:14;;;;;;;12.38;7.65;;;14.30;52.80;;;;;;4971203;28;20125;-86
2022/03/26 00:05:40;;;;;;;11.98;7.50;;;14.20;52.70;;;;;;4970517;28;20053;-85
2022/03/26 00:08:07;;;;;;;12.02;7.50;;;14.20;52.80;;;;;;4954650;28;20050;-86
2022/03/26 00:10:33;;;;;;;11.68;7.22;;;14.30;52.70;;;;;;4965940;28;20035;-86
2022/03/26 00:12:59;;;;;;;10.20;7.22;;;14.20;52.60;;;;;;4970734;28;20042;-84
2022/03/26 00:15:26;;;;;;;11.13;7.38;;;14.20;52.70;;;;;;4954922;28;20498;-85
2022/03/26 00:17:52;;;;;;;9.93;6.88;;;14.20;52.60;;;;;;5002891;28;20043;-84
2022/03/26 00:20:18;;;;;;;11.93;7.05;;;14.20;52.60;;;;;;4938785;28;20030;-84
2022/03/26 00:22:44;;;;;;;10.85;7.00;;;14.20;52.60;;;;;;4966895;28;20037;-83
2022/03/26 00:25:13;;;;;;;9.15;7.20;;;14.20;52.60;;;;;;4973929;28;20037;-85
2022/03/26 00:27:39;;;;;;;9.73;7.18;;;14.20;53.00;;;;;;4956830;28;20410;-84
2022/03/26 00:30:06;;;;;;;9.80;6.78;;;14.20;52.40;;;;;;4957855;28;20040;-88
2022/03/26 00:32:32;;;;;;;11.60;7.13;;;14.20;52.50;;;;;;4940613;28;20045;-88
2022/03/26 00:34:58;;;;;;;11.95;6.93;;;14.20;52.40;;;;;;4942143;28;20394;-89
2022/03/26 00:37:25;;;;;;;11.45;7.40;;;14.20;52.30;;;;;;4954657;28;20084;-87
2022/03/26 00:39:51;;;;;;;10.93;7.15;;;14.20;52.30;;;;;;4973369;28;20062;-89
2022/03/26 00:42:16;;;;;;;10.52;7.30;;;14.20;52.30;;;;;;4956652;28;20504;-88
2022/03/26 00:44:42;;;;;;;10.38;7.32;;;14.20;52.20;;;;;;4988006;28;20129;-89
2022/03/26 00:47:09;;;;;;;10.25;7.07;;;14.20;52.30;;;;;;4956635;28;20061;-88
2022/03/26 00:49:35;;;;;;;9.20;6.75;;;14.20;52.20;;;;;;4957176;28;20038;-88
2022/03/26 00:52:03;;;;;;;9.38;6.75;;;14.20;52.20;;;;;;4972816;28;20031;-87
2022/03/26 00:54:30;;;;;;;8.15;6.47;;;14.20;52.20;;;;;;4940248;28;20050;-89
2022/03/26 00:56:57;;;;;;;11.43;7.05;;;14.20;52.20;;;;;;4980123;28;20525;-89
2022/03/26 00:59:24;;;;;;;10.43;6.63;;;14.20;52.10;;;;;;4955958;28;20056;-87
2022/03/26 01:01:49;;;;;;;10.05;6.53;;;14.20;52.00;;;;;;4956253;28;20145;-88
2022/03/26 01:04:15;;;;;;;9.82;6.28;;;14.20;52.00;;;;;;4972418;28;20145;-86
2022/03/26 01:06:41;;;;;;;11.10;6.65;;;14.20;52.00;;;;;;4956069;28;20041;-87
2022/03/26 01:09:08;;;;;;;11.48;6.68;;;14.20;52.00;;;;;;4971776;28;20057;-88
2022/03/26 01:11:34;;;;;;;14.60;7.50;;;14.20;52.00;;;;;;4956576;28;20062;-88
2022/03/26 01:14:02;;;;;;;8.60;6.40;;;14.10;51.90;;;;;;4939401;28;20043;-89
2022/03/26 01:16:28;;;;;;;7.68;6.38;;;14.20;52.00;;;;;;4972900;28;20041;-88
2022/03/26 01:18:56;;;;;;;8.35;6.63;;;14.10;52.00;;;;;;4971981;28;20042;-89
2022/03/26 01:21:22;;;;;;;9.48;7.10;;;14.10;52.00;;;;;;4972590;28;20396;-88
2022/03/26 01:23:50;;;;;;;9.55;6.95;;;14.10;51.90;;;;;;4956977;28;20077;-89
2022/03/26 01:26:17;;;;;;;8.88;6.30;;;14.10;52.00;;;;;;4957214;28;20041;-86
2022/03/26 01:28:43;;;;;;;9.65;7.40;;;14.10;51.90;;;;;;4971676;28;20073;-85
2022/03/26 01:31:10;;;;;;;10.35;7.00;;;14.10;51.80;;;;;;4972726;28;20031;-85
2022/03/26 01:33:36;;;;;;;14.95;7.63;;;14.10;51.80;;;;;;4955352;28;20218;-83
2022/03/26 01:36:02;;;;;;;10.63;6.72;;;14.10;51.80;;;;;;4972197;28;20121;-85
2022/03/26 01:38:28;;;;;;;10.10;6.90;;;14.10;51.70;;;;;;4955996;28;20085;-85
2022/03/26 01:40:54;;;;;;;9.98;6.47;;;14.10;51.80;;;;;;4972400;28;20516;-84
2022/03/26 01:43:20;;;;;;;10.52;7.07;;;14.10;51.70;;;;;;4972702;28;20030;-82
2022/03/26 01:45:46;;;;;;;10.02;6.82;;;14.10;51.70;;;;;;4971024;28;20046;-86
2022/03/26 01:48:12;;;;;;;9.85;6.70;;;14.10;51.70;;;;;;4970947;28;20055;-85
2022/03/26 01:50:40;;;;;;;9.85;7.35;;;14.10;51.60;;;;;;4987193;28;20038;-87
2022/03/26 01:53:06;;;;;;;13.77;7.22;;;14.10;51.60;;;;;;4939995;28;20041;-91
2022/03/26 01:55:32;;;;;;;10.52;6.68;;;14.10;52.20;;;;;;4939936;28;20122;-86
2022/03/26 01:57:59;;;;;;;9.52;6.82;;;14.10;51.60;;;;;;4972358;28;20137;-87
2022/03/26 02:00:25;;;;;;;9.95;6.68;;;14.10;52.10;;;;;;4955972;28;20121;-86
2022/03/26 02:02:51;;;;;;;8.25;6.43;;;14.00;51.50;;;;;;4940386;28;20034;-87
2022/03/26 02:05:19;;;;;;;9.30;6.70;;;14.10;51.60;;;;;;4956918;28;20548;-87
2022/03/26 02:07:46;;;;;;;11.38;6.68;;;14.10;51.50;;;;;;4954980;28;20057;-84
2022/03/26 02:10:14;;;;;;;12.02;7.38;;;14.10;51.40;;;;;;4940992;28;20048;-85
2022/03/26 02:12:41;;;;;;;10.80;6.50;;;14.10;51.50;;;;;;4955896;28;20165;-83
2022/03/26 02:15:07;;;;;;;11.63;7.03;;;14.10;51.50;;;;;;4960479;28;20035;-87
2022/03/26 02:17:34;;;;;;;9.93;6.55;;;14.00;51.40;;;;;;4976299;28;20076;-87
2022/03/26 02:20:03;;;;;;;10.75;6.97;;;14.10;51.30;;;;;;4992112;28;20038;-85
2022/03/26 02:22:29;;;;;;;9.20;6.63;;;14.10;51.20;;;;;;4973362;28;20053;-86
2022/03/26 02:24:56;;;;;;;10.55;7.20;;;14.10;51.20;;;;;;4987728;28;20592;-86
2022/03/26 02:27:23;;;;;;;9.50;6.63;;;14.10;51.10;;;;;;4954625;28;20038;-86
2022/03/26 02:29:50;;;;;;;10.27;6.90;;;14.00;51.00;;;;;;4989295;28;20100;-86
2022/03/26 02:32:27;;;;;;;10.15;6.60;;;14.10;51.00;;;;;;4957157;28;20030;-91
2022/03/26 02:34:54;;;;;;;13.23;6.70;;;14.10;51.00;;;;;;4970571;28;20088;-87
2022/03/26 02:37:21;;;;;;;8.73;7.10;;;14.10;51.00;;;;;;4940905;28;20034;-85
2022/03/26 02:39:47;;;;;;;10.77;6.85;;;14.10;50.90;;;;;;4939903;28;20057;-87
2022/03/26 02:42:14;;;;;;;10.50;6.65;;;14.10;50.90;;;;;;4951629;28;20065;-89
2022/03/26 02:44:41;;;;;;;8.63;6.25;;;14.00;50.90;;;;;;4956084;28;20157;-87
2022/03/26 02:47:10;;;;;;;10.55;6.97;;;14.00;51.60;;;;;;4955917;28;20027;-87
2022/03/26 02:49:36;;;;;;;11.55;6.88;;;14.10;51.00;;;;;;4955673;28;20041;-88
2022/03/26 02:52:02;;;;;;;9.15;6.88;;;14.10;50.90;;;;;;4955972;28;20038;-88
2022/03/26 02:54:28;;;;;;;9.98;6.72;;;14.10;50.90;;;;;;4986785;28;20034;-89
2022/03/26 02:56:54;;;;;;;12.77;7.35;;;14.10;50.70;;;;;;4967511;28;20045;-87
2022/03/26 02:59:21;;;;;;;12.85;7.15;;;14.10;50.70;;;;;;4970021;28;20073;-86
2022/03/26 03:01:47;;;;;;;11.98;7.43;;;14.10;50.60;;;;;;4967351;28;20059;-88
2022/03/26 03:04:14;;;;;;;10.45;6.72;;;14.00;50.60;;;;;;4972767;28;20037;-87
2022/03/26 03:06:40;;;;;;;10.25;6.95;;;14.10;50.50;;;;;;4972872;28;20077;-89
2022/03/26 03:09:07;;;;;;;8.75;7.07;;;14.10;50.50;;;;;;4939462;28;20046;-89
2022/03/26 03:11:34;;;;;;;10.98;7.22;;;14.10;50.70;;;;;;4949718;28;20038;-88
2022/03/26 03:14:01;;;;;;;11.43;7.10;;;14.10;50.50;;;;;;4954719;28;20057;-87
2022/03/26 03:16:27;;;;;;;11.05;7.20;;;14.10;50.50;;;;;;4939405;28;20041;-88
2022/03/26 03:18:53;;;;;;;9.95;7.03;;;14.10;50.60;;;;;;4949633;28;20038;-86
2022/03/26 03:21:19;;;;;;;19.00;7.43;;;14.10;50.70;;;;;;4971798;28;20035;-89
2022/03/26 03:23:45;;;;;;;8.32;6.85;;;14.10;50.80;;;;;;4971499;28;20036;-90
2022/03/26 03:26:11;;;;;;;9.95;6.90;;;14.10;50.70;;;;;;4970555;28;20066;-87
2022/03/26 03:28:40;;;;;;;8.52;6.70;;;14.10;50.70;;;;;;4940449;28;20038;-88
2022/03/26 03:31:06;;;;;;;9.98;7.00;;;14.10;50.90;;;;;;4960323;28;20248;-90
2022/03/26 03:33:32;;;;;;;8.90;6.82;;;14.10;50.80;;;;;;4961689;28;20081;-88
2022/03/26 03:35:58;;;;;;;8.98;7.35;;;14.10;50.90;;;;;;4978135;28;20123;-89
2022/03/26 03:38:25;;;;;;;9.18;6.75;;;14.10;51.10;;;;;;4961181;28;20440;-90
2022/03/26 03:40:51;;;;;;;8.95;7.53;;;14.00;50.90;;;;;;4943599;28;20036;-86
2022/03/26 03:43:17;;;;;;;9.57;7.38;;;14.10;51.10;;;;;;4986745;28;20030;-86
2022/03/26 03:45:44;;;;;;;10.30;7.38;;;14.10;51.20;;;;;;4954843;28;20042;-85
2022/03/26 03:48:10;;;;;;;10.40;7.40;;;14.10;51.50;;;;;;4985315;28;20038;-87
2022/03/26 03:50:36;;;;;;;9.20;7.00;;;14.10;51.50;;;;;;4969286;28;20030;-88
2022/03/26 03:53:02;;;;;;;10.63;7.53;;;14.10;51.70;;;;;;4954063;28;20817;-88
2022/03/26 03:55:28;;;;;;;10.40;7.20;;;14.10;51.70;;;;;;4938013;28;20034;-88
2022/03/26 03:57:54;;;;;;;8.57;7.15;;;14.10;51.60;;;;;;4970070;28;20038;-90
2022/03/26 04:00:20;;;;;;;11.15;7.43;;;14.10;51.60;;;;;;4958223;28;20042;-87
2022/03/26 04:02:47;;;;;;;10.00;7.18;;;14.10;51.80;;;;;;4957857;28;20088;-85
2022/03/26 04:05:13;;;;;;;11.48;7.22;;;14.10;51.70;;;;;;4990734;28;20158;-82
2022/03/26 04:07:40;;;;;;;10.57;7.32;;;14.10;51.60;;;;;;4967789;28;20418;-88
2022/03/26 04:10:08;;;;;;;10.40;7.30;;;14.10;51.80;;;;;;4956070;28;20644;-88
2022/03/26 04:12:36;;;;;;;10.70;7.47;;;14.10;51.80;;;;;;4972097;28;20394;-87
2022/03/26 04:15:03;;;;;;;10.68;7.22;;;14.10;51.90;;;;;;4978351;28;20034;-85
2022/03/26 04:17:30;;;;;;;10.25;7.03;;;14.10;51.80;;;;;;4957570;28;20038;-88
2022/03/26 04:19:56;;;;;;;12.05;7.50;;;14.10;51.80;;;;;;4987184;28;20121;-86
2022/03/26 04:22:22;;;;;;;10.85;7.28;;;14.10;51.80;;;;;;4957166;28;20169;-87
2022/03/26 04:24:48;;;;;;;9.63;7.45;;;14.10;51.60;;;;;;4969131;28;20034;-86
2022/03/26 04:27:14;;;;;;;9.68;6.82;;;14.10;51.70;;;;;;4971504;28;20038;-85
2022/03/26 04:29:40;;;;;;;11.43;7.20;;;14.10;51.50;;;;;;4972347;28;21332;-86
2022/03/26 04:32:06;;;;;;;9.13;7.50;;;14.10;51.50;;;;;;4962656;28;20034;-87
2022/03/26 04:34:32;;;;;;;13.85;7.55;;;14.10;51.50;;;;;;4947703;28;20045;-85
2022/03/26 04:36:58;;;;;;;10.40;7.15;;;14.20;51.50;;;;;;4990235;28;20042;-87
2022/03/26 04:39:24;;;;;;;10.50;7.07;;;14.20;51.30;;;;;;4972961;28;20557;-86
2022/03/26 04:41:49;;;;;;;9.52;7.60;;;14.20;51.20;;;;;;4972171;28;20539;-85
2022/03/26 04:44:16;;;;;;;11.00;8.00;;;14.20;51.10;;;;;;4971818;28;20141;-85
2022/03/26 04:46:42;;;;;;;14.57;7.50;;;14.20;51.10;;;;;;4987957;28;20081;-85
2022/03/26 04:49:08;;;;;;;9.88;7.07;;;14.20;51.00;;;;;;4990080;28;20033;-81
2022/03/26 04:51:35;;;;;;;11.40;8.23;;;14.20;51.00;;;;;;4989614;28;20401;-81
2022/03/26 04:54:00;;;;;;;9.68;6.97;;;14.20;51.00;;;;;;4971819;28;20154;-80
2022/03/26 04:56:26;;;;;;;11.02;7.90;;;14.20;51.00;;;;;;4984582;28;20623;-81
2022/03/26 04:58:53;;;;;;;10.95;7.38;;;14.20;50.90;;;;;;4989350;28;20034;-83
2022/03/26 05:01:19;;;;;;;10.75;7.43;;;14.20;50.90;;;;;;4989602;28;20525;-82
2022/03/26 05:03:45;;;;;;;10.30;7.82;;;14.20;50.80;;;;;;4967725;28;20042;-87
2022/03/26 05:06:11;;;;;;;12.00;8.07;;;14.20;50.80;;;;;;4954896;28;20040;-82
2022/03/26 05:08:37;;;;;;;9.43;6.75;;;14.20;50.80;;;;;;4989250;28;20050;-82
2022/03/26 05:11:03;;;;;;;11.13;7.45;;;14.20;50.80;;;;;;4969565;28;20038;-82
2022/03/26 05:13:29;;;;;;;10.70;7.40;;;14.20;51.10;;;;;;4989317;28;20409;-81
2022/03/26 05:15:55;;;;;;;10.52;7.60;;;14.20;51.40;;;;;;4972341;28;20049;-81
2022/03/26 05:18:21;;;;;;;9.15;7.20;;;14.30;51.50;;;;;;4989318;28;20035;-81
2022/03/26 05:20:47;;;;;;;14.23;7.90;;;14.20;51.50;;;;;;4988435;28;20174;-82
2022/03/26 05:23:12;;;;;;;9.20;7.32;;;14.30;51.40;;;;;;4989192;28;20121;-80
2022/03/26 05:25:39;;;;;;;12.23;7.28;;;14.20;51.30;;;;;;4988819;28;20059;-80
2022/03/26 05:28:05;;;;;;;14.55;8.35;;;14.30;51.40;;;;;;4989470;28;20050;-80
2022/03/26 05:30:31;;;;;;;12.13;8.05;;;14.30;51.30;;;;;;4989575;28;20030;-80
2022/03/26 05:32:59;;;;;;;9.80;7.10;;;14.30;51.20;;;;;;4988488;28;20062;-80
2022/03/26 05:35:25;;;;;;;10.63;7.50;;;14.30;51.00;;;;;;4988809;28;20073;-79
2022/03/26 05:37:51;;;;;;;12.80;7.50;;;14.30;51.20;;;;;;4988441;28;20030;-79
2022/03/26 05:40:19;;;;;;;11.07;7.82;;;14.30;51.20;;;;;;4989012;28;20038;-79
2022/03/26 05:42:47;;;;;;;11.75;8.10;;;14.30;51.10;;;;;;4988023;28;20133;-80
2022/03/26 05:45:14;;;;;;;9.45;7.72;;;14.30;51.00;;;;;;4987667;28;20521;-80
2022/03/26 05:47:41;;;;;;;11.55;7.53;;;14.40;51.00;;;;;;4987944;28;20045;-79
2022/03/26 05:50:11;;;;;;;12.68;8.23;;;14.40;51.00;;;;;;4987110;28;20041;-79
2022/03/26 05:52:37;;;;;;;13.50;7.60;;;14.40;51.10;;;;;;4987895;28;20038;-80
2022/03/26 05:55:04;;;;;;;9.15;7.65;;;14.40;51.20;;;;;;4989118;28;20033;-81
2022/03/26 05:57:30;;;;;;;10.77;7.63;;;14.40;51.10;;;;;;4988105;28;20125;-80
2022/03/26 05:59:56;;;;;;;11.77;7.28;;;14.40;51.10;;;;;;4987816;28;20030;-79
2022/03/26 06:02:22;;;;;;;11.00;7.25;;;14.30;51.10;;;;;;4970156;28;20088;-79
2022/03/26 06:04:48;;;;;;;12.60;8.52;;;14.40;51.10;;;;;;4988172;28;20034;-79
2022/03/26 06:07:14;;;;;;;12.85;8.32;;;14.30;51.10;;;;;;4988428;28;20037;-79
2022/03/26 06:09:40;;;;;;;10.65;8.00;;;14.40;51.20;;;;;;4986532;28;20096;-79
2022/03/26 06:12:07;;;;;;;13.15;8.10;;;14.40;51.10;;;;;;4986836;28;20035;-78
2022/03/26 06:14:34;;;;;;;13.25;7.75;;;14.40;51.10;;;;;;4987253;28;20039;-79
2022/03/26 06:17:00;;;;;;;12.70;7.95;;;14.40;51.10;;;;;;4988001;28;20034;-79
2022/03/26 06:19:26;;;;;;;13.50;7.90;;;14.40;51.10;;;;;;4988057;28;20042;-79
2022/03/26 06:21:53;;;;;;;12.88;7.60;;;14.40;51.00;;;;;;5001874;28;20124;-79
2022/03/26 06:24:20;;;;;;;14.02;8.48;;;14.40;51.00;;;;;;4987369;28;20055;-79
2022/03/26 06:26:48;;;;;;;11.75;8.18;;;14.40;51.00;;;;;;4987077;28;20519;-79
2022/03/26 06:29:15;;;;;;;10.93;8.55;;;14.40;50.90;;;;;;4986533;28;20049;-79
2022/03/26 06:31:41;;;;;;;12.52;7.90;;;14.40;51.00;;;;;;4969900;28;20138;-79
2022/03/26 06:34:07;;;;;;;10.07;7.97;;;14.40;51.00;;;;;;4969677;28;20035;-80
2022/03/26 06:36:34;;;;;;;13.35;8.40;;;14.40;51.00;;;;;;4987971;28;20038;-81
2022/03/26 06:39:01;;;;;;;11.38;7.78;;;14.40;51.10;;;;;;4969341;28;20050;-81
2022/03/26 06:41:27;;;;;;;11.25;7.85;;;14.40;51.00;;;;;;4969285;28;20493;-81
2022/03/26 06:43:53;;;;;;;10.73;7.72;;;14.40;51.00;;;;;;4987402;28;20045;-79
2022/03/26 06:46:19;;;;;;;12.70;7.93;;;14.40;50.90;;;;;;4970606;28;20030;-80
2022/03/26 06:48:45;;;;;;;12.55;8.05;;;14.40;50.80;;;;;;4986858;28;20129;-79
2022/03/26 06:51:11;;;;;;;12.05;7.85;;;14.40;50.90;;;;;;4988021;28;20030;-82
2022/03/26 06:53:37;;;;;;;9.10;7.82;;;14.50;50.90;;;;;;4986938;28;20635;-81
2022/03/26 06:56:06;;;;;;;10.43;7.75;;;14.50;50.80;;;;;;4986278;28;20468;-84
2022/03/26 06:58:36;;;;;;;12.60;7.85;;;14.50;50.90;;;;;;4954585;28;20096;-84
2022/03/26 07:01:03;;;;;;;9.38;7.28;;;14.50;50.80;;;;;;4946367;28;20573;-83
2022/03/26 07:03:30;;;;;;;12.25;7.85;;;14.50;50.70;;;;;;5002324;28;20042;-85
2022/03/26 07:05:56;;;;;;;10.88;8.40;;;14.40;50.70;;;;;;4954728;28;20608;-86
2022/03/26 07:08:23;;;;;;;11.65;7.95;;;14.50;50.60;;;;;;4953716;28;20498;-86
2022/03/26 07:10:49;;;;;;;12.10;8.07;;;14.50;50.50;;;;;;4937070;28;20038;-86
2022/03/26 07:13:15;;;;;;;11.05;7.38;;;14.50;51.30;;;;;;4970377;28;20372;-85
2022/03/26 07:15:42;;;;;;;12.63;6.82;;;14.50;51.50;;;;;;4986063;28;20577;-86
2022/03/26 07:18:09;;;;;;;10.32;6.47;;;14.50;52.40;;;;;;4969998;28;20030;-88
2022/03/26 07:20:35;;;;;;;16.38;8.23;;;14.50;53.10;;;;;;4953291;28;20261;-90
2022/03/26 07:23:01;;;;;;;11.70;7.95;;;14.60;53.30;;;;;;5001090;28;20468;-86
2022/03/26 07:25:29;;;;;;;9.40;7.00;;;14.60;53.40;;;;;;4956685;28;20060;-94
2022/03/26 07:27:55;;;;;;;10.65;7.32;;;14.60;53.30;;;;;;4986519;28;20046;-91
2022/03/26 07:30:21;;;;;;;11.95;7.82;;;14.60;53.00;;;;;;4938831;28;20092;-90
2022/03/26 07:32:47;;;;;;;12.90;8.50;;;14.60;52.50;;;;;;4938427;28;20038;-92
2022/03/26 07:35:13;;;;;;;17.42;8.57;;;14.60;52.20;;;;;;4969576;28;20042;-91
2022/03/26 07:37:40;;;;;;;12.55;8.00;;;14.60;52.00;;;;;;4940504;28;20038;-90
2022/03/26 07:40:06;;;;;;;13.20;7.65;;;14.60;52.00;;;;;;4939473;28;20030;-93
2022/03/26 07:42:32;;;;;;;12.05;7.75;;;14.60;52.00;;;;;;4970703;28;20034;-94
2022/03/26 07:44:58;;;;;;;15.18;8.52;;;14.60;51.80;;;;;;4969120;28;20053;-93
2022/03/26 07:47:24;;;;;;;16.83;8.20;;;14.70;51.80;;;;;;4969900;28;20623;-93
2022/03/26 07:49:50;;;;;;;12.07;8.20;;;14.60;51.60;;;;;;4969286;28;20042;-94
2022/03/26 07:52:17;;;;;;;12.55;8.20;;;14.60;51.80;;;;;;4954260;28;20034;-91
2022/03/26 07:54:43;;;;;;;15.73;8.27;;;14.60;51.80;;;;;;4969098;28;20065;-93
2022/03/26 07:57:09;;;;;;;10.18;8.27;;;14.60;51.70;;;;;;4936143;28;20050;-86
2022/03/26 07:59:35;;;;;;;13.27;7.80;;;14.60;51.60;;;;;;4936272;28;20089;-89
2022/03/26 08:02:01;;;;;;;13.60;8.13;;;14.60;51.70;;;;;;4935932;28;20038;-87
2022/03/26 08:04:27;;;;;;;9.70;7.43;;;14.60;51.70;;;;;;4968868;28;20429;-87
2022/03/26 08:06:53;;;;;;;13.57;6.90;;;14.60;51.60;;;;;;4952516;28;20105;-89
2022/03/26 08:09:19;;;;;;;11.82;7.82;;;14.60;51.90;;;;;;4953419;28;20092;-89
2022/03/26 08:11:45;;;;;;;15.35;7.70;;;14.60;51.90;;;;;;4941366;28;20058;-91
2022/03/26 08:14:14;;;;;;;16.50;8.13;;;14.60;51.80;;;;;;4942328;28;20069;-90
2022/03/26 08:16:40;;;;;;;12.55;7.35;;;14.60;52.10;;;;;;4956762;28;20037;-85
2022/03/26 08:19:07;;;;;;;26.00;7.35;;;14.60;52.20;;;;;;4957713;28;20388;-90
2022/03/26 08:21:35;;;;;;;20.15;8.02;;;14.60;54.30;;;;;;4973844;28;20520;-85
2022/03/26 08:24:04;;;;;;;16.75;6.75;;;14.70;55.50;;;;;;4989719;28;20468;-87
2022/03/26 08:26:30;;;;;;;17.00;7.63;;;14.70;55.50;;;;;;4972178;28;20496;-87
2022/03/26 08:28:59;;;;;;;11.68;7.45;;;14.70;55.40;;;;;;4975175;28;20511;-87
2022/03/26 08:31:27;;;;;;;12.70;7.65;;;14.70;55.40;;;;;;4958411;28;20557;-88
2022/03/26 08:33:54;;;;;;;17.40;7.60;;;14.70;55.40;;;;;;4993906;28;20101;-85
2022/03/26 08:36:20;;;;;;;14.93;8.32;;;14.80;55.60;;;;;;4971469;28;20371;-85
2022/03/26 08:38:48;;;;;;;11.48;8.02;;;14.80;55.70;;;;;;4968406;28;20034;-84
2022/03/26 08:41:15;;;;;;;12.95;7.82;;;14.80;56.00;;;;;;4990797;28;20034;-88
2022/03/26 08:43:42;;;;;;;14.27;8.38;;;14.90;56.00;;;;;;4956198;28;20497;-88
2022/03/26 08:46:08;;;;;;;15.15;9.00;;;14.80;55.40;;;;;;4960883;28;20524;-92
2022/03/26 08:48:34;;;;;;;14.07;8.77;;;14.80;55.00;;;;;;4973150;28;20039;-90
2022/03/26 08:51:01;;;;;;;18.73;8.82;;;14.80;55.10;;;;;;4959266;28;20038;-88
2022/03/26 08:53:27;;;;;;;14.75;8.90;;;14.70;55.20;;;;;;4943756;28;20225;-86
2022/03/26 08:55:53;;;;;;;19.52;9.07;;;14.70;55.50;;;;;;4960143;28;20038;-87
2022/03/26 08:58:19;;;;;;;13.15;8.55;;;14.60;56.00;;;;;;4978251;28;20034;-87
2022/03/26 09:00:47;;;;;;;13.40;8.88;;;14.60;56.10;;;;;;4946609;28;20057;-85
2022/03/26 09:03:14;;;;;;;18.60;9.15;;;14.50;56.20;;;;;;4963049;28;20042;-89
2022/03/26 09:05:41;;;;;;;15.07;9.05;;;14.50;56.00;;;;;;4993588;28;20124;-85
2022/03/26 09:08:07;;;;;;;16.98;9.93;;;14.50;56.10;;;;;;4975474;28;20050;-85
2022/03/26 09:10:33;;;;;;;15.43;9.13;;;14.40;56.50;;;;;;4987074;28;20078;-85
2022/03/26 09:12:59;;;;;;;11.30;9.48;;;14.40;56.50;;;;;;4966178;28;20042;-86
2022/03/26 09:15:25;;;;;;;16.17;9.70;;;14.40;56.50;;;;;;4944543;28;20046;-85
2022/03/26 09:17:51;;;;;;;15.32;9.55;;;14.40;56.70;;;;;;4999765;28;20038;-86
2022/03/26 09:20:17;;;;;;;14.15;9.68;;;14.30;57.30;;;;;;4978506;28;20035;-82
2022/03/26 09:22:42;;;;;;;15.85;8.98;;;14.30;57.40;;;;;;4958827;28;20145;-86
2022/03/26 09:25:08;;;;;;;18.75;9.65;;;14.30;57.50;;;;;;4992696;28;20117;-85
2022/03/26 09:27:35;;;;;;;14.90;8.90;;;14.20;57.60;;;;;;4977103;28;20042;-87
2022/03/26 09:30:01;;;;;;;16.63;9.30;;;14.20;57.80;;;;;;4947987;28;20802;-90
2022/03/26 09:32:31;;;;;;;15.05;8.98;;;14.20;58.30;;;;;;4979705;28;20031;-94
2022/03/26 09:35:08;;;;;;;16.02;9.02;;;14.20;58.50;;;;;;4954859;28;20042;-93
2022/03/26 09:37:45;;;;;;;15.98;9.70;;;14.20;58.80;;;;;;4973610;28;20128;-87
2022/03/26 09:40:11;;;;;;;13.00;8.35;;;14.20;58.80;;;;;;4961492;28;20030;-93
2022/03/26 09:42:39;;;;;;;13.70;8.93;;;14.10;58.80;;;;;;4952183;28;20038;-91
2022/03/26 09:45:06;;;;;;;16.42;8.65;;;14.10;58.60;;;;;;4990841;28;20035;-88
2022/03/26 09:47:33;;;;;;;16.33;8.70;;;14.10;58.50;;;;;;4958912;28;20065;-90
2022/03/26 09:50:00;;;;;;;13.20;8.65;;;14.10;58.40;;;;;;4998981;28;20062;-94
2022/03/26 09:52:26;;;;;;;12.25;9.05;;;14.10;58.30;;;;;;4965465;28;20031;-92
2022/03/26 09:54:57;;;;;;;11.98;8.80;;;14.10;58.20;;;;;;4957864;28;20018;-96
2022/03/26 09:57:23;;;;;;;14.50;9.57;;;14.00;58.30;;;;;;4989652;28;20037;-95
2022/03/26 09:59:51;;;;;;;11.82;8.40;;;14.00;58.10;;;;;;4951770;28;20034;-83
2022/03/26 10:02:20;;;;;;;15.13;9.38;;;14.00;58.10;;;;;;4953083;28;20057;-96
2022/03/26 10:04:47;;;;;;;14.68;9.25;;;13.90;58.00;;;;;;4990522;28;20053;-94
2022/03/26 10:07:13;;;;;;;16.90;9.60;;;13.90;58.10;;;;;;5009870;28;20065;-93
2022/03/26 10:09:45;;;;;;;13.38;9.30;;;13.90;58.00;;;;;;4955531;28;20174;-93
2022/03/26 10:12:13;;;;;;;16.65;9.52;;;13.80;57.80;;;;;;5005000;28;20044;-88
2022/03/26 10:14:58;;;;;;;14.50;10.15;;;13.80;58.00;;;;;;4959197;28;20107;-91
2022/03/26 10:17:27;;;;;;;13.63;9.38;;;13.80;58.00;;;;;;4958746;28;20042;-92
2022/03/26 10:19:55;;;;;;;14.73;9.93;;;13.80;58.00;;;;;;4951821;28;20111;-93
2022/03/26 10:22:29;;;;;;;16.00;10.15;;;13.70;58.00;;;;;;4951445;28;20121;-94
2022/03/26 10:24:58;;;;;;;15.35;9.90;;;13.80;57.90;;;;;;4977967;28;20088;-91
2022/03/26 10:27:24;;;;;;;16.02;10.50;;;13.70;58.00;;;;;;4949401;28;20042;-94
2022/03/26 10:29:53;;;;;;;15.80;10.00;;;13.70;58.00;;;;;;4948002;28;20046;-92
2022/03/26 10:32:39;;;;;;;15.23;9.75;;;13.70;58.10;;;;;;4976875;28;20129;-88
2022/03/26 10:35:27;;;;;;;16.45;10.20;;;13.70;57.90;;;;;;4976580;28;20061;-85
2022/03/26 10:37:58;;;;;;;13.48;9.88;;;13.60;58.00;;;;;;4956972;28;20046;-89
2022/03/26 10:40:32;;;;;;;16.42;9.57;;;13.60;58.30;;;;;;4975113;28;20042;-88
2022/03/26 10:43:00;;;;;;;14.68;9.40;;;13.60;58.60;;;;;;4979106;28;20069;-86
2022/03/26 10:45:27;;;;;;;13.35;9.73;;;13.60;58.80;;;;;;4987889;28;20031;-90
2022/03/26 10:47:59;;;;;;;15.85;10.27;;;13.60;58.90;;;;;;4976542;28;20030;-87
2022/03/26 10:50:31;;;;;;;14.68;9.90;;;13.60;58.60;;;;;;4983020;28;20057;-90
2022/03/26 10:52:57;;;;;;;16.10;10.73;;;13.60;58.50;;;;;;4985936;28;20486;-87
2022/03/26 10:55:24;;;;;;;11.07;8.75;;;13.60;58.50;;;;;;4971949;28;20054;-89
2022/03/26 10:57:50;;;;;;;12.90;10.18;;;13.50;58.70;;;;;;4970760;28;20061;-90
2022/03/26 11:00:18;;;;;;;15.23;10.43;;;13.60;58.40;;;;;;4955637;28;20038;-90
2022/03/26 11:02:45;;;;;;;16.88;10.00;;;13.50;58.00;;;;;;4985610;28;20042;-89
2022/03/26 11:05:12;;;;;;;15.98;9.63;;;13.50;58.00;;;;;;4972712;28;20117;-88
2022/03/26 11:07:42;;;;;;;15.60;9.85;;;13.60;58.20;;;;;;4954341;28;20049;-86
2022/03/26 11:10:11;;;;;;;13.25;9.45;;;13.60;58.00;;;;;;4985604;28;20026;-85
2022/03/26 11:12:45;;;;;;;12.75;8.98;;;13.60;57.80;;;;;;4954662;28;20035;-85
2022/03/26 11:15:21;;;;;;;13.60;9.98;;;13.60;57.60;;;;;;4963792;28;20386;-85
2022/03/26 11:18:08;;;;;;;15.27;9.00;;;13.60;57.40;;;;;;4953259;28;20061;-89
2022/03/26 11:20:59;;;;;;;13.90;9.32;;;13.60;57.00;;;;;;5001784;28;20034;-90
2022/03/26 11:23:59;;;;;;;11.90;8.75;;;13.60;57.00;;;;;;4937758;28;20157;-91
2022/03/26 11:26:45;;;;;;;12.60;8.55;;;13.60;56.90;;;;;;4987086;28;20108;-89
2022/03/26 11:29:11;;;;;;;9.75;7.28;;;13.60;56.80;;;;;;4938143;28;20096;-87
2022/03/26 11:32:08;;;;;;;13.93;5.50;;;13.60;57.60;;;;;;4955375;28;21024;-87
2022/03/26 11:34:37;;;;;;;;;;;13.70;57.40;;;;;;4939218;28;20042;-89
2022/03/26 11:37:12;;;;;;;5.78;3.50;;;13.70;56.80;;;;;;4989558;28;20008;-90
2022/03/26 11:39:46;;;;;;;5.75;3.97;;;13.70;56.50;;;;;;4952743;28;20556;-89
2022/03/26 11:42:12;;;;;;;5.20;2.95;;;13.70;55.90;;;;;;4955275;28;20425;-90
2022/03/26 11:50:40;;;;;;;4.97;2.75;;;13.80;55.70;;;;;;4953198;28;20041;-87
2022/03/26 11:53:09;;;;;;;3.92;2.13;;;13.80;53.80;;;;;;4971438;28;20076;-88
2022/03/26 11:55:46;;;;;;;3.10;1.95;;;13.80;53.50;;;;;;4943041;28;20038;-88
2022/03/26 11:58:13;;;;;;;2.70;1.92;;;13.70;53.40;;;;;;5003388;28;20379;-89
2022/03/26 12:01:04;;;;;;;4.40;2.35;;;13.80;53.30;;;;;;4938568;28;20521;-83
2022/03/26 12:03:42;;;;;;;7.75;2.80;;;13.70;53.40;;;;;;4986355;28;20073;-82
2022/03/26 12:08:57;;;;;;;5.47;2.45;;;13.90;58.40;;;;;;4989365;28;20046;-91
2022/03/26 12:11:33;;;;;;;3.50;2.20;;;14.00;57.40;;;;;;4971254;28;20452;-91
2022/03/26 12:14:09;;;;;;;6.25;2.25;;;14.10;55.00;;;;;;4953183;28;20069;-86
2022/03/26 12:16:50;;;;;;;3.72;1.60;;;14.10;53.50;;;;;;4988028;28;20124;-87
2022/03/26 12:19:48;;;;;;;5.72;2.00;;;14.20;52.80;;;;;;4987512;28;20045;-84
2022/03/26 12:22:33;;;;;;;4.55;2.28;;;14.20;52.40;;;;;;4984555;28;20076;-83
2022/03/26 12:25:01;;;;;;;2.13;1.50;;;14.20;52.50;;;;;;4989076;28;20207;-82
2022/03/26 12:27:27;;;;;;;3.25;1.30;;;14.20;51.60;;;;;;4990378;28;20041;-83
2022/03/26 12:29:58;;;;;;;3.85;1.40;;;14.20;51.40;;;;;;4990112;28;20050;-83
2022/03/26 12:32:31;;;;;;;3.13;1.60;;;14.20;51.30;;;;;;4973416;28;20378;-85
2022/03/26 12:35:04;;;;;;;2.95;1.85;;;14.20;51.30;;;;;;4940867;28;20129;-83
2022/03/26 12:37:31;;;;;;;2.10;1.30;;;14.20;51.20;;;;;;4990747;28;20112;-84
2022/03/26 12:39:57;;;;;;;2.33;1.40;;;14.20;51.20;;;;;;4990162;28;20038;-85
2022/03/26 12:42:24;;;;;;;2.33;1.52;;;14.20;50.90;;;;;;4985630;28;20133;-90
2022/03/26 12:44:51;;;;;;;2.70;1.17;;;14.10;50.40;;;;;;4989120;28;21496;-88
2022/03/26 12:47:22;;;;;;;4.45;1.88;;;14.10;50.50;;;;;;4956410;28;20057;-82
2022/03/26 12:49:48;;;;;;;2.90;1.40;;;14.10;50.80;;;;;;4969376;28;20046;-80
2022/03/26 12:52:19;;;;;;;3.28;1.27;;;14.10;51.90;;;;;;4972500;28;20077;-81